Time;durP1;ratioP1;P1;durP2;ratioP2;P2;SDS_P1;SDS_P2;PMS_P1;PMS_P2;Temp;Humidity;BMP_temperature;BMP_pressure;BME280_temperature;BME280_humidity;BME280_pressure;Samples;Min_cycle;Max_cycle;Signal;HPM_P1;HPM_P2
2023/08/24 00:00:54;;;;;;;7.20;6.60;;;;;;;21.96;100.00;100321.84;4986747;28;20213;-77
2023/08/24 00:03:21;;;;;;;7.33;6.73;;;;;;;21.95;100.00;100314.88;4992762;28;20185;-80
2023/08/24 00:05:47;;;;;;;6.70;6.30;;;;;;;21.91;100.00;100312.41;4990830;28;20190;-77
2023/08/24 00:08:12;;;;;;;7.50;6.93;;;;;;;21.89;100.00;100306.38;4991558;28;20207;-77
2023/08/24 00:10:38;;;;;;;7.27;6.77;;;;;;;21.87;100.00;100296.88;4987724;28;20633;-78
2023/08/24 00:13:03;;;;;;;7.90;7.30;;;;;;;21.82;100.00;100289.25;4989534;28;20204;-78
2023/08/24 00:15:29;;;;;;;7.03;6.53;;;;;;;21.77;100.00;100286.88;4987747;28;20193;-77
2023/08/24 00:17:55;;;;;;;8.20;7.57;;;;;;;21.74;100.00;100292.31;4986558;28;20768;-76
2023/08/24 00:20:20;;;;;;;7.27;6.67;;;;;;;21.72;100.00;100288.03;4985774;28;20216;-77
2023/08/24 00:22:46;;;;;;;7.80;7.17;;;;;;;21.71;100.00;100289.84;4986314;28;20204;-77
2023/08/24 00:25:12;;;;;;;7.87;7.27;;;;;;;21.70;100.00;100282.03;5004354;28;20196;-77
2023/08/24 00:27:38;;;;;;;7.40;6.90;;;;;;;21.69;100.00;100294.34;4989565;28;20247;-77
2023/08/24 00:30:06;;;;;;;8.17;7.40;;;;;;;21.65;100.00;100282.25;4985601;28;20319;-77
2023/08/24 00:32:33;;;;;;;8.23;7.63;;;;;;;21.60;100.00;100279.88;4983878;28;20252;-79
2023/08/24 00:34:58;;;;;;;7.87;7.17;;;;;;;21.57;100.00;100279.19;4984233;28;20247;-78
2023/08/24 00:37:24;;;;;;;7.40;6.90;;;;;;;21.55;100.00;100273.16;4981711;28;20204;-77
2023/08/24 00:39:49;;;;;;;7.67;7.07;;;;;;;21.52;100.00;100273.31;4980888;28;20686;-78
2023/08/24 00:42:14;;;;;;;7.80;7.20;;;;;;;21.47;100.00;100276.19;4981424;28;20189;-77
2023/08/24 00:44:40;;;;;;;7.97;7.47;;;;;;;21.42;100.00;100273.84;4983916;28;20193;-77
2023/08/24 00:47:07;;;;;;;7.37;6.87;;;;;;;21.39;100.00;100270.53;4985506;28;20288;-79
2023/08/24 00:49:32;;;;;;;7.73;7.13;;;;;;;21.35;100.00;100264.56;4984682;28;20200;-78
2023/08/24 00:51:57;;;;;;;8.30;7.70;;;;;;;21.30;100.00;100259.53;4980359;28;20181;-79
2023/08/24 00:54:23;;;;;;;8.83;8.10;;;;;;;21.28;100.00;100258.78;4982767;28;20180;-76
2023/08/24 00:56:49;;;;;;;9.10;8.10;;;;;;;21.25;100.00;100256.31;4982090;28;20205;-77
2023/08/24 00:59:14;;;;;;;8.83;8.10;;;;;;;21.23;100.00;100255.56;4987403;28;20193;-78
2023/08/24 01:01:44;;;;;;;8.37;7.70;;;;;;;21.21;100.00;100265.31;4980206;28;20208;-79
2023/08/24 01:04:10;;;;;;;8.23;7.60;;;;;;;21.19;100.00;100264.56;4983223;28;20181;-76
2023/08/24 01:06:36;;;;;;;8.50;7.90;;;;;;;21.17;100.00;100263.78;4978993;28;20287;-78
2023/08/24 01:09:01;;;;;;;8.70;8.07;;;;;;;21.14;100.00;100264.81;4981942;28;20284;-76
2023/08/24 01:11:56;;;;;;;13.43;7.90;;;;;;;21.13;100.00;100278.88;4979887;28;20327;-76
2023/08/24 01:14:32;;;;;;;9.17;8.37;;;;;;;21.07;100.00;100281.84;4979546;28;20197;-77
2023/08/24 01:17:01;;;;;;;8.70;8.10;;;;;;;21.03;100.00;100282.91;4982317;28;20323;-77
2023/08/24 01:19:35;;;;;;;8.23;7.73;;;;;;;20.99;100.00;100286.66;4980169;28;20668;-78
2023/08/24 01:22:05;;;;;;;9.57;8.60;;;;;;;20.94;100.00;100292.19;4984965;28;20183;-76
2023/08/24 01:24:34;;;;;;;8.37;7.67;;;;;;;20.86;100.00;100292.56;4981810;28;20210;-76
2023/08/24 01:27:01;;;;;;;8.33;7.73;;;;;;;20.83;100.00;100297.13;4985439;28;20212;-76
2023/08/24 01:29:27;;;;;;;7.80;7.20;;;;;;;20.82;100.00;100298.03;4981785;28;20185;-78
2023/08/24 01:31:52;;;;;;;8.10;7.43;;;;;;;20.82;100.00;100292.78;4980493;28;20189;-79
2023/08/24 01:34:17;;;;;;;7.50;7.00;;;;;;;20.82;100.00;100296.28;4984732;28;20181;-78
2023/08/24 01:36:44;;;;;;;7.40;6.70;;;;;;;20.83;100.00;100303.25;4976658;28;20217;-77
2023/08/24 01:39:18;;;;;;;7.77;7.27;;;;;;;20.90;100.00;100306.41;4983617;28;20185;-76
2023/08/24 01:41:49;;;;;;;7.53;6.93;;;;;;;20.92;100.00;100306.31;4999100;28;20248;-76
2023/08/24 01:44:20;;;;;;;7.67;7.17;;;;;;;20.94;100.00;100294.81;4987163;28;20665;-76
2023/08/24 01:46:46;;;;;;;7.23;6.73;;;;;;;20.94;100.00;100289.53;4987062;28;20205;-77
2023/08/24 01:49:14;;;;;;;8.20;7.50;;;;;;;20.99;100.00;100286.66;4987110;28;20672;-77
2023/08/24 01:51:40;;;;;;;7.43;6.93;;;;;;;21.01;100.00;100288.28;4979427;28;20178;-80
2023/08/24 01:54:06;;;;;;;8.07;7.40;;;;;;;21.01;100.00;100285.66;4980103;28;20841;-77
2023/08/24 01:56:31;;;;;;;7.57;7.07;;;;;;;20.99;100.00;100284.88;4981852;28;20216;-78
2023/08/24 01:58:57;;;;;;;8.03;7.07;;;;;;;20.94;100.00;100286.91;4985891;28;20196;-77
2023/08/24 02:01:22;;;;;;;7.60;7.10;;;;;;;20.90;100.00;100292.38;4982414;28;20258;-78
2023/08/24 02:03:47;;;;;;;8.03;7.33;;;;;;;20.86;100.00;100295.22;4980604;28;20192;-76
2023/08/24 02:06:13;;;;;;;7.77;7.17;;;;;;;20.83;100.00;100292.72;4978500;28;20324;-78
2023/08/24 02:08:38;;;;;;;8.23;7.57;;;;;;;20.81;100.00;100293.72;4982928;28;20929;-76
2023/08/24 02:11:03;;;;;;;7.73;7.13;;;;;;;20.77;100.00;100295.66;4983166;28;20225;-76
2023/08/24 02:13:29;;;;;;;7.80;7.20;;;;;;;20.74;100.00;100287.06;4982750;28;20549;-76
2023/08/24 02:16:05;;;;;;;7.50;6.90;;;;;;;20.70;100.00;100284.56;4984023;28;20209;-75
2023/08/24 02:18:31;;;;;;;8.10;7.30;;;;;;;20.65;100.00;100278.69;4981086;28;20200;-76
2023/08/24 02:20:56;;;;;;;7.20;6.70;;;;;;;20.64;100.00;100284.03;4978066;28;20209;-76
2023/08/24 02:23:21;;;;;;;6.47;6.00;;;;;;;20.62;100.00;100276.25;4978319;28;20197;-75
2023/08/24 02:25:47;;;;;;;6.90;6.40;;;;;;;20.60;100.00;100278.09;4985767;28;20295;-78
2023/08/24 02:28:12;;;;;;;7.07;6.60;;;;;;;20.61;100.00;100284.19;4985144;28;20605;-77
2023/08/24 02:30:38;;;;;;;9.07;7.47;;;;;;;20.63;100.00;100280.56;4987953;28;20547;-77
2023/08/24 02:33:04;;;;;;;13.93;7.93;;;;;;;20.60;100.00;100278.09;4983634;28;20189;-76
2023/08/24 02:35:29;;;;;;;8.23;7.47;;;;;;;20.58;100.00;100284.34;4983969;28;20928;-78
2023/08/24 02:37:56;;;;;;;7.93;6.77;;;;;;;20.51;100.00;100289.94;4981318;28;20227;-78
2023/08/24 02:40:22;;;;;;;7.20;6.70;;;;;;;20.51;100.00;100278.56;4985667;28;20224;-78
2023/08/24 02:42:47;;;;;;;6.57;6.07;;;;;;;20.53;100.00;100272.31;4989403;28;20192;-79
2023/08/24 02:45:13;;;;;;;7.30;6.70;;;;;;;20.54;100.00;100255.59;4986301;28;20247;-77
2023/08/24 02:47:38;;;;;;;7.50;6.80;;;;;;;20.56;100.00;100251.13;4982131;28;20217;-77
2023/08/24 02:50:06;;;;;;;7.43;6.73;;;;;;;20.56;100.00;100245.88;4987443;28;20188;-77
2023/08/24 02:52:31;;;;;;;8.07;6.90;;;;;;;20.62;100.00;100236.81;4983838;28;20200;-79
2023/08/24 02:54:56;;;;;;;7.20;6.47;;;;;;;20.64;100.00;100228.84;4989431;28;20197;-78
2023/08/24 02:57:21;;;;;;;8.03;5.83;;;;;;;20.70;100.00;100229.34;4997830;28;20696;-76
2023/08/24 02:59:47;;;;;;;6.50;5.63;;;;;;;20.69;100.00;100232.91;4988022;28;20213;-78
2023/08/24 03:02:12;;;;;;;6.57;5.97;;;;;;;20.61;100.00;100229.84;4985380;28;20189;-79
2023/08/24 03:04:37;;;;;;;6.57;6.10;;;;;;;20.61;100.00;100226.34;4984946;28;20280;-78
2023/08/24 03:07:03;;;;;;;7.77;6.23;;;;;;;20.63;100.00;100225.38;4981686;28;20218;-77
2023/08/24 03:09:28;;;;;;;7.17;6.20;;;;;;;20.65;100.00;100212.13;4985913;28;20981;-78
2023/08/24 03:11:53;;;;;;;6.60;6.00;;;;;;;20.66;100.00;100212.03;4984137;28;20200;-77
2023/08/24 03:14:19;;;;;;;6.43;5.83;;;;;;;20.70;100.00;100204.84;4985991;28;20567;-78
2023/08/24 03:16:44;;;;;;;9.80;6.13;;;;;;;20.79;100.00;100196.50;4993157;28;20752;-77
2023/08/24 03:19:10;;;;;;;5.87;5.37;;;;;;;20.81;100.00;100196.41;4988734;28;20196;-77
2023/08/24 03:21:36;;;;;;;7.10;5.50;;;;;;;20.77;100.00;100182.56;4985344;28;20613;-77
2023/08/24 03:24:04;;;;;;;7.10;5.57;;;;;;;20.74;100.00;100181.88;4988429;28;20200;-77
2023/08/24 03:26:29;;;;;;;6.63;5.97;;;;;;;20.74;100.00;100184.50;4986084;28;20328;-76
2023/08/24 03:28:54;;;;;;;6.87;6.17;;;;;;;20.80;100.00;100184.19;4981376;28;20198;-78
2023/08/24 03:31:20;;;;;;;5.60;5.17;;;;;;;20.85;100.00;100182.16;4976824;28;20837;-77
2023/08/24 03:33:45;;;;;;;6.23;5.70;;;;;;;20.89;100.00;100174.94;4986034;28;20241;-78
2023/08/24 03:36:11;;;;;;;6.20;5.70;;;;;;;20.87;100.00;100169.78;4985350;28;20750;-79
2023/08/24 03:38:36;;;;;;;5.97;5.37;;;;;;;20.84;100.00;100176.06;4986425;28;20193;-78
2023/08/24 03:41:05;;;;;;;5.87;5.27;;;;;;;20.84;100.00;100168.19;4987973;28;20213;-78
2023/08/24 03:43:35;;;;;;;6.93;5.83;;;;;;;20.94;100.00;100162.41;4982798;28;20998;-77
2023/08/24 03:46:01;;;;;;;5.97;5.47;;;;;;;20.96;100.00;100164.00;4979513;28;20212;-76
2023/08/24 03:48:27;;;;;;;12.60;6.50;;;;;;;20.90;100.00;100150.34;4982369;28;20193;-78
2023/08/24 03:50:57;;;;;;;10.10;6.13;;;;;;;20.82;100.00;100156.88;4984754;28;20186;-77
2023/08/24 03:53:23;;;;;;;9.13;5.53;;;;;;;20.75;100.00;100144.13;4988817;28;20192;-77
2023/08/24 03:55:49;;;;;;;8.77;5.63;;;;;;;20.69;100.00;100150.56;4986562;28;20250;-77
2023/08/24 03:58:15;;;;;;;6.03;5.53;;;;;;;20.65;100.00;100149.84;4987757;28;20672;-77
2023/08/24 04:00:41;;;;;;;6.10;5.50;;;;;;;20.63;100.00;100143.84;4990607;28;20201;-79
2023/08/24 04:03:07;;;;;;;6.37;5.77;;;;;;;20.61;100.00;100145.72;4985127;28;20197;-77
2023/08/24 04:05:32;;;;;;;5.57;5.17;;;;;;;20.61;100.00;100136.97;4974978;28;20575;-78
2023/08/24 04:07:57;;;;;;;5.70;5.20;;;;;;;20.58;100.00;100135.34;4984504;28;20212;-77
2023/08/24 04:10:23;;;;;;;6.10;5.57;;;;;;;20.56;100.00;100132.81;4985559;28;20212;-76
2023/08/24 04:12:48;;;;;;;6.03;5.53;;;;;;;20.58;100.00;100139.75;4984353;28;20224;-77
2023/08/24 04:15:13;;;;;;;5.97;5.57;;;;;;;20.60;100.00;100143.16;4980426;28;20558;-78
2023/08/24 04:17:39;;;;;;;6.27;5.73;;;;;;;20.61;100.00;100150.09;4983637;28;20220;-76
2023/08/24 04:20:06;;;;;;;6.93;5.93;;;;;;;20.58;100.00;100150.25;4979768;28;20225;-76
2023/08/24 04:22:31;;;;;;;6.60;5.93;;;;;;;20.56;100.00;100147.72;4983516;28;20660;-77
2023/08/24 04:24:57;;;;;;;6.00;5.60;;;;;;;20.54;100.00;100139.94;4981648;28;20216;-77
2023/08/24 04:27:22;;;;;;;6.23;5.73;;;;;;;20.53;100.00;100142.63;4987061;28;20204;-78
2023/08/24 04:29:48;;;;;;;6.47;6.07;;;;;;;20.54;100.00;100144.31;4984255;28;20195;-77
2023/08/24 04:32:14;;;;;;;6.33;5.83;;;;;;;20.54;100.00;100139.94;4984347;28;20211;-77
2023/08/24 04:34:39;;;;;;;6.27;5.63;;;;;;;20.53;100.00;100138.25;4986297;28;20201;-77
2023/08/24 04:37:05;;;;;;;5.93;5.43;;;;;;;20.55;100.00;100139.00;4988124;28;20220;-79
2023/08/24 04:39:31;;;;;;;5.97;5.57;;;;;;;20.55;100.00;100138.13;4985816;28;20228;-79
2023/08/24 04:41:56;;;;;;;6.63;6.03;;;;;;;20.55;100.00;100139.00;4986983;28;20627;-78
2023/08/24 04:44:22;;;;;;;6.23;5.70;;;;;;;20.55;100.00;100130.25;4986175;28;20193;-77
2023/08/24 04:46:47;;;;;;;6.20;5.70;;;;;;;20.54;100.00;100126.78;4978563;28;20218;-80
2023/08/24 04:49:13;;;;;;;5.80;5.30;;;;;;;20.55;100.00;100119.75;4986050;28;20243;-76
2023/08/24 04:51:38;;;;;;;5.50;5.10;;;;;;;20.55;100.00;100112.72;4977533;28;20272;-76
2023/08/24 04:54:03;;;;;;;6.80;6.20;;;;;;;20.60;100.00;100108.97;4982427;28;20202;-76
2023/08/24 04:56:28;;;;;;;9.83;5.87;;;;;;;20.61;100.00;100101.03;4985455;28;20220;-77
2023/08/24 04:58:56;;;;;;;10.83;6.30;;;;;;;20.69;100.00;100106.69;4983249;28;20242;-78
2023/08/24 05:01:22;;;;;;;9.43;6.10;;;;;;;20.66;100.00;100104.22;4976721;28;20597;-78
2023/08/24 05:03:47;;;;;;;9.57;6.57;;;;;;;20.72;100.00;100095.19;4981345;28;20273;-77
2023/08/24 05:06:12;;;;;;;8.93;6.30;;;;;;;20.81;100.00;100101.72;4984785;28;20760;-77
2023/08/24 05:08:38;;;;;;;13.60;6.77;;;;;;;20.92;100.00;100091.50;4984071;28;20316;-76
2023/08/24 05:11:11;;;;;;;8.73;6.40;;;;;;;21.02;100.00;100082.13;4985304;28;20185;-78
2023/08/24 05:13:36;;;;;;;9.33;7.13;;;;;;;21.09;100.00;100092.34;4980296;28;20729;-76
2023/08/24 05:16:01;;;;;;;7.63;6.60;;;;;;;21.16;100.00;100091.91;4985112;28;20303;-76
2023/08/24 05:18:27;;;;;;;13.17;8.17;;;;;;;21.30;100.00;100088.47;4976095;28;20200;-77
2023/08/24 05:20:52;;;;;;;7.20;6.53;;;;;;;21.42;100.00;100094.81;4975014;28;20212;-77
2023/08/24 05:23:18;;;;;;;7.30;6.60;;;;;;;21.52;100.00;100100.41;4980490;28;20805;-77
2023/08/24 05:25:43;;;;;;;7.13;6.27;;;;;;;21.61;100.00;100105.16;4983550;28;20193;-76
2023/08/24 05:28:08;;;;;;;5.93;5.47;;;;;;;21.69;100.00;100104.72;4983046;28;20283;-77
2023/08/24 05:30:34;;;;;;;5.90;5.40;;;;;;;21.78;100.00;100106.78;4998532;28;20721;-77
2023/08/24 05:32:59;;;;;;;7.33;5.40;;;;;;;21.81;100.00;100113.69;4980295;28;20197;-77
2023/08/24 05:35:27;;;;;;;7.37;5.57;;;;;;;21.82;100.00;100119.78;4983083;28;20255;-77
2023/08/24 05:37:52;;;;;;;7.20;5.87;;;;;;;21.82;100.00;100111.88;4977534;28;20213;-77
2023/08/24 05:40:18;;;;;;;11.17;6.03;;;;;;;21.82;100.00;100122.41;4985428;28;20263;-78
2023/08/24 05:42:43;;;;;;;7.73;5.63;;;;;;;21.78;100.00;100125.22;4981279;28;20189;-77
2023/08/24 05:45:09;;;;;;;9.47;6.53;;;;;;;21.79;100.00;100139.25;4995229;28;20189;-79
2023/08/24 05:47:34;;;;;;;9.90;6.17;;;;;;;21.77;100.00;100155.16;4989358;28;20685;-77
2023/08/24 05:49:59;;;;;;;13.73;6.30;;;;;;;21.75;100.00;100170.22;4982004;28;20189;-77
2023/08/24 05:52:25;;;;;;;7.13;5.97;;;;;;;21.75;100.00;100188.66;4986801;28;20239;-77
2023/08/24 05:54:50;;;;;;;6.43;5.70;;;;;;;21.73;100.00;100193.16;4984429;28;20485;-77
2023/08/24 05:57:15;;;;;;;6.77;5.30;;;;;;;21.71;100.00;100205.56;4980926;28;20223;-77
2023/08/24 05:59:41;;;;;;;6.30;5.47;;;;;;;21.66;100.00;100235.72;4981418;28;20825;-75
2023/08/24 06:02:06;;;;;;;7.40;5.60;;;;;;;21.58;100.00;100246.66;4986226;28;20208;-77
2023/08/24 06:04:31;;;;;;;7.23;6.10;;;;;;;21.57;100.00;100245.78;4985434;28;20197;-78
2023/08/24 06:06:57;;;;;;;8.37;6.03;;;;;;;21.57;100.00;100237.88;4982529;28;20828;-78
2023/08/24 06:09:22;;;;;;;9.20;6.30;;;;;;;21.57;100.00;100232.63;4993230;28;20189;-79
2023/08/24 06:11:47;;;;;;;10.23;6.47;;;;;;;21.55;100.00;100236.28;4999485;28;20729;-78
2023/08/24 06:14:12;;;;;;;6.97;6.27;;;;;;;21.56;100.00;100228.28;4980194;28;20220;-79
2023/08/24 06:16:38;;;;;;;8.10;6.10;;;;;;;21.54;100.00;100222.28;4983761;28;20217;-76
2023/08/24 06:19:03;;;;;;;8.47;6.23;;;;;;;21.57;100.00;100201.03;4987624;28;20181;-77
2023/08/24 06:21:29;;;;;;;7.20;6.47;;;;;;;21.52;100.00;100208.34;4982801;28;20216;-78
2023/08/24 06:23:54;;;;;;;10.40;6.27;;;;;;;21.66;100.00;100230.44;4984695;28;20584;-78
2023/08/24 06:26:19;;;;;;;10.83;6.33;;;;;;;21.82;100.00;100241.81;4991460;28;20204;-76
2023/08/24 06:28:45;;;;;;;7.07;5.73;;;;;;;21.93;100.00;100243.84;4991253;28;20197;-78
2023/08/24 06:31:10;;;;;;;6.73;6.03;;;;;;;22.03;100.00;100242.38;4992527;28;20352;-77
2023/08/24 06:33:38;;;;;;;8.00;5.83;;;;;;;22.01;100.00;100225.81;4990449;28;20184;-78
2023/08/24 06:36:05;;;;;;;6.17;5.57;;;;;;;21.86;100.00;100227.50;4983261;28;20302;-77
2023/08/24 06:38:31;;;;;;;7.93;5.77;;;;;;;21.91;100.00;100236.03;4986761;28;20195;-78
2023/08/24 06:40:57;;;;;;;5.50;4.70;;;;;;;22.07;100.00;100238.63;5003109;28;20204;-76
2023/08/24 06:43:23;;;;;;;5.50;5.00;;;;;;;22.01;100.00;100252.16;4988927;28;20235;-77
2023/08/24 06:45:48;;;;;;;7.30;5.40;;;;;;;22.04;100.00;100232.66;4994760;28;20185;-78
2023/08/24 06:48:13;;;;;;;6.53;4.97;;;;;;;22.01;100.00;100231.06;4992125;28;20191;-78
2023/08/24 06:50:39;;;;;;;8.90;5.70;;;;;;;21.81;100.00;100236.63;4991320;28;20854;-77
2023/08/24 06:53:04;;;;;;;5.70;4.97;;;;;;;21.68;100.00;100223.31;4992145;28;20264;-77
2023/08/24 06:55:30;;;;;;;6.43;5.73;;;;;;;21.73;100.00;100226.53;4991258;28;20187;-79
2023/08/24 06:57:55;;;;;;;16.83;6.00;;;;;;;21.62;100.00;100230.63;4991423;28;21046;-77
2023/08/24 07:00:21;;;;;;;6.60;5.27;;;;;;;21.68;100.00;100220.69;4986578;28;20649;-78
2023/08/24 07:02:47;;;;;;;6.00;5.50;;;;;;;21.95;100.00;100214.78;4989773;28;20194;-78
2023/08/24 07:05:13;;;;;;;5.63;5.13;;;;;;;22.04;100.00;100223.00;4989615;28;20685;-76
2023/08/24 07:07:38;;;;;;;8.03;5.80;;;;;;;22.32;100.00;100224.00;4990731;28;20243;-78
2023/08/24 07:10:06;;;;;;;5.60;4.90;;;;;;;22.20;100.00;100222.94;5007378;28;20213;-78
2023/08/24 07:12:31;;;;;;;8.57;5.37;;;;;;;22.17;100.00;100215.19;4989342;28;20216;-79
2023/08/24 07:14:58;;;;;;;6.73;5.30;;;;;;;22.20;100.00;100203.66;4989210;28;20263;-78
2023/08/24 07:17:23;;;;;;;5.90;4.60;;;;;;;22.25;100.00;100219.19;5007698;28;20212;-78
2023/08/24 07:19:49;;;;;;;7.87;5.30;;;;;;;22.36;100.00;100212.34;4987008;28;20190;-79
2023/08/24 07:22:14;;;;;;;7.47;4.53;;;;;;;22.59;100.00;100209.28;4991716;28;20191;-77
2023/08/24 07:24:39;;;;;;;6.20;4.53;;;;;;;22.66;100.00;100203.56;4988547;28;20756;-77
2023/08/24 07:27:05;;;;;;;5.93;4.93;;;;;;;22.86;100.00;100204.09;5001594;28;20220;-76
2023/08/24 07:29:30;;;;;;;6.93;4.90;;;;;;;22.89;100.00;100211.81;4989333;28;20192;-77
2023/08/24 07:31:55;;;;;;;5.97;4.90;;;;;;;23.12;100.00;100207.75;4992363;28;20193;-78
2023/08/24 07:34:22;;;;;;;5.17;4.47;;;;;;;23.49;98.84;100207.22;4988542;28;20292;-79
2023/08/24 07:36:48;;;;;;;6.30;4.63;;;;;;;23.64;97.09;100213.31;4991092;28;20224;-78
2023/08/24 07:39:15;;;;;;;5.53;4.17;;;;;;;23.76;96.44;100222.22;4996155;28;20193;-79
2023/08/24 07:41:41;;;;;;;4.77;4.30;;;;;;;23.89;96.48;100209.91;4990190;28;20212;-77
2023/08/24 07:44:06;;;;;;;6.30;4.43;;;;;;;23.96;96.64;100201.56;4987851;28;20196;-78
2023/08/24 07:46:32;;;;;;;7.67;4.90;;;;;;;24.25;93.83;100209.34;4982776;28;21848;-78
2023/08/24 07:48:57;;;;;;;5.10;3.93;;;;;;;23.81;94.97;100208.72;4984384;28;20709;-77
2023/08/24 07:51:22;;;;;;;6.73;4.60;;;;;;;23.76;94.72;100206.38;4986356;28;20698;-78
2023/08/24 07:53:49;;;;;;;4.77;3.97;;;;;;;24.04;93.86;100208.06;4982688;28;20194;-78
2023/08/24 07:56:14;;;;;;;5.93;3.97;;;;;;;23.94;94.26;100206.09;4984819;28;20764;-77
2023/08/24 07:58:39;;;;;;;5.03;4.17;;;;;;;23.85;95.46;100199.63;4984090;28;20276;-76
2023/08/24 08:01:04;;;;;;;5.60;3.93;;;;;;;24.04;94.14;100221.28;4986808;28;20225;-76
2023/08/24 08:03:30;;;;;;;6.03;4.10;;;;;;;23.95;93.12;100210.44;4988593;28;20189;-77
2023/08/24 08:05:56;;;;;;;5.87;4.10;;;;;;;24.10;93.69;100219.19;4980663;28;20729;-77
2023/08/24 08:08:22;;;;;;;10.50;4.70;;;;;;;24.39;92.73;100225.13;4985587;28;20193;-76
2023/08/24 08:10:47;;;;;;;6.23;4.10;;;;;;;24.37;93.36;100213.81;4984847;28;20248;-78
2023/08/24 08:13:13;;;;;;;4.10;3.73;;;;;;;24.33;92.64;100204.41;4982860;28;20189;-77
2023/08/24 08:15:38;;;;;;;5.23;4.00;;;;;;;24.18;93.13;100209.78;4982582;28;20733;-78
2023/08/24 08:18:05;;;;;;;5.13;4.30;;;;;;;24.10;92.61;100208.63;4996072;28;20185;-78
2023/08/24 08:20:30;;;;;;;7.10;4.27;;;;;;;23.98;93.51;100199.69;4984987;28;20209;-77
2023/08/24 08:22:56;;;;;;;4.63;4.00;;;;;;;24.10;94.42;100211.25;4986548;28;20988;-77
2023/08/24 08:25:22;;;;;;;4.40;4.00;;;;;;;24.26;92.46;100203.13;4987192;28;20271;-77
2023/08/24 08:27:47;;;;;;;8.23;4.20;;;;;;;24.34;92.50;100217.53;4984283;28;20205;-77
2023/08/24 08:30:13;;;;;;;9.43;4.43;;;;;;;24.18;92.11;100201.88;4983278;28;20272;-79
2023/08/24 08:32:38;;;;;;;5.00;4.27;;;;;;;24.33;92.59;100193.84;5002892;28;20194;-77
2023/08/24 08:35:05;;;;;;;7.97;4.60;;;;;;;24.42;92.77;100195.00;4984258;28;20189;-77
2023/08/24 08:37:32;;;;;;;6.43;4.20;;;;;;;24.46;91.22;100196.47;4986743;28;20398;-77
2023/08/24 08:39:57;;;;;;;7.40;4.43;;;;;;;24.37;92.84;100190.00;4990217;28;20849;-77
2023/08/24 08:42:22;;;;;;;4.80;4.40;;;;;;;24.27;93.05;100178.38;4985468;28;20193;-77
2023/08/24 08:44:49;;;;;;;6.70;4.50;;;;;;;24.59;92.92;100180.59;4980356;28;20193;-79
2023/08/24 08:47:14;;;;;;;4.50;4.10;;;;;;;24.72;91.95;100175.34;4985019;28;20209;-76
2023/08/24 08:49:42;;;;;;;4.90;4.00;;;;;;;24.50;92.05;100166.22;4987200;28;20259;-77
2023/08/24 08:52:09;;;;;;;7.10;4.20;;;;;;;24.70;92.66;100164.84;4987280;28;20196;-77
2023/08/24 08:54:35;;;;;;;6.10;4.73;;;;;;;24.72;92.35;100149.72;4982654;28;20570;-76
2023/08/24 08:57:01;;;;;;;6.33;3.93;;;;;;;24.72;91.18;100152.34;4986170;28;20212;-77
2023/08/24 08:59:30;;;;;;;7.43;4.60;;;;;;;24.83;91.87;100132.22;4983348;28;20304;-77
2023/08/24 09:01:56;;;;;;;4.93;4.17;;;;;;;24.98;92.40;100140.88;4981656;28;20217;-77
2023/08/24 09:04:23;;;;;;;8.53;4.53;;;;;;;25.02;93.51;100139.69;4985645;28;20594;-77
2023/08/24 09:06:49;;;;;;;6.40;3.93;;;;;;;25.09;92.25;100140.94;4983339;28;20268;-76
2023/08/24 09:09:15;;;;;;;7.27;4.30;;;;;;;25.03;91.36;100144.03;4980800;28;20198;-78
2023/08/24 09:11:47;;;;;;;7.50;4.53;;;;;;;25.18;92.48;100134.97;4978219;28;20351;-76
2023/08/24 09:14:12;;;;;;;7.40;4.00;;;;;;;25.41;91.89;100124.47;4987722;28;20201;-76
2023/08/24 09:16:37;;;;;;;5.23;4.37;;;;;;;25.61;91.28;100114.25;4985612;28;20259;-77
2023/08/24 09:19:06;;;;;;;6.77;4.40;;;;;;;25.56;90.95;100106.63;4981907;28;20253;-77
2023/08/24 09:21:31;;;;;;;7.37;4.23;;;;;;;25.78;90.51;100105.00;4981860;28;20221;-77
2023/08/24 09:23:56;;;;;;;9.03;5.00;;;;;;;25.84;90.07;100093.94;4980581;28;20193;-76
2023/08/24 09:26:36;;;;;;;4.30;4.00;;;;;;;25.91;89.11;100092.50;4983982;28;20304;-77
2023/08/24 09:29:13;;;;;;;5.70;4.70;;;;;;;25.94;90.45;100081.66;4984018;28;20385;-78
2023/08/24 09:31:39;;;;;;;7.97;4.53;;;;;;;26.16;89.89;100080.88;4990758;28;20193;-77
2023/08/24 09:34:06;;;;;;;6.07;4.20;;;;;;;26.32;89.55;100061.94;5001338;28;20177;-80
2023/08/24 09:36:35;;;;;;;6.63;4.30;;;;;;;26.52;88.85;100058.69;4987876;28;20208;-78
2023/08/24 09:39:04;;;;;;;4.90;4.50;;;;;;;26.66;88.73;100038.97;4984871;28;20192;-77
2023/08/24 09:41:41;;;;;;;5.93;4.60;;;;;;;26.66;88.56;100038.97;4981245;28;20212;-78
2023/08/24 09:44:06;;;;;;;6.47;4.47;;;;;;;26.90;89.82;100031.72;4977750;28;20197;-77
2023/08/24 09:46:32;;;;;;;5.13;4.47;;;;;;;26.91;87.90;100036.06;4979507;28;20217;-78
2023/08/24 09:49:00;;;;;;;8.60;4.83;;;;;;;27.06;87.84;100027.78;4981116;28;20185;-77
2023/08/24 09:51:26;;;;;;;4.67;4.27;;;;;;;27.26;87.30;100026.13;4979626;28;20261;-77
2023/08/24 09:53:57;;;;;;;8.73;4.53;;;;;;;27.39;87.87;100023.25;4983177;28;20449;-77
2023/08/24 09:56:25;;;;;;;6.50;4.43;;;;;;;27.47;86.67;100020.84;4985627;28;20208;-78
2023/08/24 09:58:51;;;;;;;5.77;4.17;;;;;;;27.69;86.82;100017.22;4988850;28;20181;-77
2023/08/24 10:01:18;;;;;;;4.97;4.27;;;;;;;28.01;86.83;100009.22;4981817;28;20221;-78
2023/08/24 10:03:44;;;;;;;5.50;4.37;;;;;;;27.98;86.78;99999.72;4981980;28;20680;-78
2023/08/24 10:06:12;;;;;;;9.00;4.77;;;;;;;28.03;86.35;100007.28;4985356;28;20342;-77
2023/08/24 10:08:42;;;;;;;8.60;4.43;;;;;;;27.95;86.36;99992.00;4980870;28;20242;-77
2023/08/24 10:11:10;;;;;;;6.23;4.50;;;;;;;28.26;85.16;99997.31;4981398;28;20182;-76
2023/08/24 10:13:53;;;;;;;6.10;4.50;;;;;;;28.29;85.71;99989.03;4983291;28;20196;-77
2023/08/24 10:16:21;;;;;;;5.77;4.40;;;;;;;28.60;84.48;99978.31;4982167;28;20207;-78
2023/08/24 10:18:47;;;;;;;9.90;5.27;;;;;;;28.49;84.43;99981.97;4983262;28;20990;-76
2023/08/24 10:21:12;;;;;;;5.33;4.53;;;;;;;28.44;85.25;99979.69;4982620;28;20220;-77
2023/08/24 10:23:38;;;;;;;5.83;4.57;;;;;;;28.45;83.75;99976.03;4986383;28;20216;-76
2023/08/24 10:26:06;;;;;;;4.97;4.53;;;;;;;28.71;84.06;99970.22;4984791;28;20204;-75
2023/08/24 10:28:32;;;;;;;5.57;4.60;;;;;;;28.75;83.31;99963.63;4974362;28;20862;-76
2023/08/24 10:31:00;;;;;;;6.10;4.80;;;;;;;28.95;83.06;99949.50;4976088;28;20182;-77
2023/08/24 10:33:26;;;;;;;6.97;4.77;;;;;;;28.57;83.32;99944.00;4983964;28;20564;-77
2023/08/24 10:35:52;;;;;;;9.00;5.10;;;;;;;28.48;83.08;99944.81;4993850;28;20177;-78
2023/08/24 10:38:28;;;;;;;6.37;5.00;;;;;;;28.63;85.32;99940.78;4983557;28;20185;-77
2023/08/24 10:40:54;;;;;;;5.43;4.93;;;;;;;28.62;83.87;99936.41;4983453;28;20251;-77
2023/08/24 10:43:20;;;;;;;6.90;4.73;;;;;;;28.64;84.24;99939.78;4983736;28;20181;-77
2023/08/24 10:46:03;;;;;;;6.47;4.83;;;;;;;28.87;83.79;99936.88;4984551;28;20188;-77
2023/08/24 10:48:30;;;;;;;8.50;4.93;;;;;;;29.02;83.40;99931.94;4976448;28;20449;-77
2023/08/24 10:51:14;;;;;;;5.50;5.00;;;;;;;28.96;83.74;99930.69;4981086;28;20681;-75
2023/08/24 10:53:40;;;;;;;9.43;5.43;;;;;;;29.05;82.76;99929.84;4985038;28;20177;-77
2023/08/24 10:56:15;;;;;;;6.57;4.77;;;;;;;29.27;83.23;99932.34;4983929;28;20201;-76
2023/08/24 10:58:41;;;;;;;7.00;5.00;;;;;;;29.26;83.13;99934.16;4984131;28;20560;-77
2023/08/24 11:01:07;;;;;;;8.40;5.03;;;;;;;29.44;84.82;99928.94;4982392;28;20751;-76
2023/08/24 11:03:33;;;;;;;6.93;4.73;;;;;;;29.78;83.01;99914.22;4984945;28;20193;-77
2023/08/24 11:05:58;;;;;;;5.80;5.00;;;;;;;29.64;82.68;99915.53;4981863;28;20268;-76
2023/08/24 11:08:44;;;;;;;7.47;5.20;;;;;;;29.56;81.97;99908.28;4981425;28;20323;-76
2023/08/24 11:11:25;;;;;;;6.03;5.05;;;;;;;29.73;82.34;99900.47;4981563;28;20189;-78
2023/08/24 11:14:21;;;;;;;7.43;5.20;;;;;;;29.83;83.16;99895.94;4988210;28;20335;-76
2023/08/24 11:16:48;;;;;;;5.37;4.93;;;;;;;30.04;81.88;99897.53;4985660;28;21220;-78